Arctic - Eastern Arctic: Past 24 Hour Conditions

 

Pond Inlet Airport

08:00 PM EDT 01 October 2014
This table is a summary of hourly weather conditions for the past 24 hours.
Date / Time
(EDT)
Wind(knots) Conditions Visibility(km) Pressure(kPa) Air tempC) Relative humidity(%) Dew pointC) Wind Chill
01 October 2014
20:00 W 11 gust 16 Cloudy 16 100.9 -5 79 -8 -12
19:00 S 8 Cloudy 16 101.0 -7 80 -10 -13
18:00 S 11 Light Snow 16 101.0 -7 81 -10 -14
17:00 S 8 Light Snow 24 101.0 -6 83 -9 -12
16:00 WSW 7 Mostly Cloudy 32 101.0 -6 81 -9 -12
15:00 S 5 Mostly Cloudy 32 101.0 -6 85 -8 -10
14:00 SSW 6 Mostly Cloudy 32 101.0 -6 82 -8 -10
13:00 S 5 Mostly Cloudy 32 101.0 -6 86 -8 -10
12:00 S 7 Mostly Cloudy 32 101.0 -6 85 -8 -11
11:00 SSE 6 Mostly Cloudy 32 101.0 -6 85 -8 -11
10:00 S 4 Cloudy 16 100.9 -6 83 -9 -10
9:00 SSE 7 Cloudy 16 100.9 -7 87 -9 -12
8:00 SSE 10 Light Snow 16 100.9 -7 87 -9 -14
7:00 SSE 9 Light Snow 16 100.9 -7 86 -9 -13
6:00 SSE 10 Light Snow 16 100.9 -7 88 -9 -14
5:00 SSE 8 Light Snow 16 100.8 -7 86 -9 -13
4:00 SSE 9 Cloudy 16 100.8 -8 86 -10 -15
3:00 SSE 12 Clear 16 100.8 -11 87 -13 -19
2:00 SSE 11 Partly Cloudy 16 100.7 -9 83 -11 -17
1:00 SSW 11 Clear 16 100.7 -9 81 -11 -16
0:00 SSE 15 Cloudy 16 100.6 -10 82 -12 -19
30 September 2014
23:00 SE 15 Mostly Cloudy 16 100.6 -10 80 -13 -19
22:00 SSE 16 Clear 16 100.6 -10 79 -13 -20
21:00 SE 15 Clear 16 100.5 -10 82 -12 -19
20:00 SE 16 Clear 16 100.5 -11 81 -14 -21
 
Map of Arctic - Eastern Arctic marine weather areas Baker Lake Airport Chesterfield Inlet Airport Coral Harbour Airport Gjoa Haven Airport Kugaaruk Airport Rankin Inlet Airport Shepherd Bay Airport Whale Cove Airport Arctic Bay Brevoort Island Qikiqtarjuaq Airport Cape Dorset Airport Cape Dyer Cape Hooper Clyde Airport Grise Fiord Airport Hall Beach Airport Igloolik Airport Iqaluit Airport Longstaff Bluff Pangnirtung Airport Pond Inlet Airport Repulse Bay Airport Resolute Airport Resolution Island Rowley Island Airport Taloyoak Airport Wager Bay Akulivik Airport Ivujivik Airport Puvirnituq Airport Kangiqsujuaq Airport Kangirsuk Airport Quaqtaq Airport Tasiujaq Airport Cape Kakkiviak Cape Kiglapait Nain Airport Saglek Cape Mercy Kimmirut Airport Aupaluk Airport Salluit Airport Kangiqsualujjuaq Airport Fort Ross
Legend: buoyBuoy land stationLand Station